EDXW Airport Information

Runway Information
Runway 06 Length 5564 ft width 148 ft
Elevation 27 ft Threshold 0 ft Heading 60
Runway 24 Length 5564 ft Width 148 ft
Elevation 51 ft Threshold 0 ft Heading 240
Runway 14 Length 6955 ft width 148 ft
Elevation 32 ft Threshold 0 ft Heading 144
Runway 32 Length 6955 ft Width 148 ft
Elevation 31 ft Threshold 0 ft Heading 324
Airport Frequencies
Type INFO Name BREMEN INF Frequency 125.1 MHZ
Type RDR Name BREMEN RAD Frequency 136.225 MHZ
Type TWR Name SYLT TWR Frequency 119.75 MHZ
Airport Navaids
Type NDB Name Sylt Frequency 387 KHZ
Type DME Name Westerland Frequency 111500 KHZ
Airport Weather Information & NOTAM
ADDS - METARS form results

(0008 UTC 23 March 2019)
Data provider http://aviationweather.gov/metar/data/
 
Forecast for: AMD
Text: TAF AMD EDXW 221613Z 2216/2218 19010KT 1500 BR BKN003
Forecast period: 1600 to 1800 UTC 22 March 2019
Forecast type: FROM: standard forecast or significant change
Winds: from the S (190 degrees) at 12 MPH (10 knots; 5.1 m/s)
Visibility: 0.93 miles (1.50 km)
Ceiling: 300 feet AGL
Clouds: broken clouds at 300 feet AGL
Weather: BR  (mist)
Text: TEMPO 2216/2218 0400 FG BKN001
Forecast period: 1600 to 1800 UTC 22 March 2019
Forecast type: TEMPORARY: The following changes expected for less than half the time period
Visibility: 0.25 miles (0.40 km)
Ceiling: 100 feet AGL
Clouds: broken clouds at 100 feet AGL
Weather: FG  (fog)